createdAt,value
2024-05-09T00:00:53.191Z,80832.44
2024-05-09T00:02:34.728Z,80831.00
2024-05-09T00:04:16.224Z,80826.13
2024-05-09T00:05:57.754Z,80831.91
2024-05-09T00:07:39.272Z,80835.69
2024-05-09T00:09:20.824Z,80827.63
2024-05-09T00:11:02.369Z,80829.69
2024-05-09T00:12:43.880Z,80827.81
2024-05-09T00:14:25.453Z,80826.69
2024-05-09T00:16:06.987Z,80832.44
2024-05-09T00:17:48.580Z,80837.34
2024-05-09T00:19:30.309Z,80836.25
2024-05-09T00:21:11.883Z,80834.78
2024-05-09T00:22:53.423Z,80836.13
2024-05-09T00:24:35.006Z,80833.88
2024-05-09T00:26:16.490Z,80836.13
2024-05-09T00:27:57.956Z,80832.69
2024-05-09T00:29:39.433Z,80832.16
2024-05-09T00:31:20.919Z,80839.88
2024-05-09T00:33:02.598Z,80839.41
2024-05-09T00:34:44.225Z,80838.16
2024-05-09T00:36:25.724Z,80835.19
2024-05-09T00:38:07.324Z,80838.91
2024-05-09T00:39:48.901Z,80836.81
2024-05-09T00:41:30.423Z,80836.19
2024-05-09T00:43:12.948Z,80836.00
2024-05-09T00:44:55.574Z,80837.72
2024-05-09T00:46:37.026Z,80836.81
2024-05-09T00:48:20.930Z,80838.66
2024-05-09T00:50:04.135Z,80834.06
2024-05-09T00:51:45.780Z,80837.53
2024-05-09T00:53:27.315Z,80841.94
2024-05-09T00:55:08.819Z,80831.06
2024-05-09T00:56:50.270Z,80833.94
2024-05-09T00:58:31.738Z,80834.22
2024-05-09T01:00:22.586Z,80825.66
2024-05-09T01:02:12.256Z,80825.75
2024-05-09T01:03:54.047Z,80836.13
2024-05-09T01:05:35.824Z,80823.50
2024-05-09T01:07:17.352Z,80828.22
2024-05-09T01:08:58.825Z,80822.97
2024-05-09T01:10:43.903Z,80826.56
2024-05-09T01:12:26.858Z,80822.19
2024-05-09T01:14:08.475Z,80826.06
2024-05-09T01:15:50.039Z,80822.91
2024-05-09T01:17:31.772Z,80821.53
2024-05-09T01:19:13.489Z,80820.50
2024-05-09T01:20:55.063Z,80819.63
2024-05-09T01:22:36.570Z,80817.84
2024-05-09T01:24:18.032Z,80815.69
2024-05-09T01:25:59.527Z,80813.44
2024-05-09T01:27:41.037Z,80810.50
2024-05-09T01:29:22.648Z,80808.63
2024-05-09T01:31:04.149Z,80811.97
2024-05-09T01:32:45.720Z,80812.38
2024-05-09T01:34:27.231Z,80807.50
2024-05-09T01:36:08.712Z,80809.09
2024-05-09T01:37:50.218Z,80804.63
2024-05-09T01:39:31.687Z,80802.00
2024-05-09T01:41:13.156Z,80809.47
2024-05-09T01:42:54.642Z,80798.25
2024-05-09T01:44:36.111Z,80808.59
2024-05-09T01:46:17.723Z,80810.03
2024-05-09T01:47:59.627Z,80816.81
2024-05-09T01:49:41.435Z,80807.50
2024-05-09T01:51:22.949Z,80808.00
2024-05-09T01:53:04.523Z,80808.66
2024-05-09T01:54:46.013Z,80804.97
2024-05-09T01:56:27.594Z,80808.16
2024-05-09T01:58:09.164Z,80807.34
2024-05-09T01:59:50.624Z,80813.47
2024-05-09T02:01:55.347Z,80812.06
2024-05-09T02:03:33.667Z,80817.34
2024-05-09T02:05:15.305Z,80816.59
2024-05-09T02:06:56.800Z,80814.81
2024-05-09T02:08:38.361Z,80812.16
2024-05-09T02:10:26.180Z,80816.50
2024-05-09T02:12:13.409Z,80815.09
2024-05-09T02:13:55.001Z,80806.59
2024-05-09T02:15:36.495Z,80805.19
2024-05-09T02:17:18.061Z,80806.38
2024-05-09T02:18:59.654Z,80810.22
2024-05-09T02:20:42.073Z,80811.25
2024-05-09T02:22:24.168Z,80808.06
2024-05-09T02:24:05.639Z,80802.50
2024-05-09T02:25:47.143Z,80805.84
2024-05-09T02:27:28.607Z,80809.69
2024-05-09T02:29:10.112Z,80811.19
2024-05-09T02:30:51.732Z,80812.75
2024-05-09T02:32:33.336Z,80810.59
2024-05-09T02:34:14.901Z,80805.69
2024-05-09T02:35:56.431Z,80797.75
2024-05-09T02:37:37.929Z,80813.97
2024-05-09T02:39:19.399Z,80802.03
2024-05-09T02:41:00.895Z,80808.66
2024-05-09T02:42:42.408Z,80803.47
2024-05-09T02:44:23.930Z,80798.91
2024-05-09T02:46:05.481Z,80802.69
2024-05-09T02:47:47.103Z,80804.75
2024-05-09T02:49:28.843Z,80800.97
2024-05-09T02:51:10.619Z,80796.44
2024-05-09T02:52:52.163Z,80798.22
2024-05-09T02:54:33.627Z,80801.09
2024-05-09T02:56:15.145Z,80799.22
2024-05-09T02:57:56.714Z,80798.66
2024-05-09T02:59:38.246Z,80797.78
2024-05-09T03:01:19.868Z,80802.88
2024-05-09T03:03:01.698Z,80794.53
2024-05-09T03:04:43.408Z,80806.53
2024-05-09T03:06:24.964Z,80802.81
2024-05-09T03:08:06.491Z,80803.22
2024-05-09T03:09:47.994Z,80801.06
2024-05-09T03:11:29.549Z,80802.13
2024-05-09T03:13:11.115Z,80802.56
2024-05-09T03:14:52.570Z,80797.81
2024-05-09T03:16:34.034Z,80801.06
2024-05-09T03:18:15.791Z,80808.16
2024-05-09T03:19:57.415Z,80800.69
2024-05-09T03:21:38.934Z,80805.91
2024-05-09T03:23:20.484Z,80800.19
2024-05-09T03:25:01.982Z,80801.06
2024-05-09T03:26:43.447Z,80795.09
2024-05-09T03:28:24.996Z,80799.63
2024-05-09T03:30:07.649Z,80799.31
2024-05-09T03:31:49.349Z,80790.53
2024-05-09T03:33:31.215Z,80780.53
2024-05-09T03:35:13.013Z,80787.34
2024-05-09T03:36:54.475Z,80780.00
2024-05-09T03:38:36.061Z,80782.72
2024-05-09T03:40:23.426Z,80785.44
2024-05-09T03:42:07.624Z,80772.94
2024-05-09T03:43:49.149Z,80770.19
2024-05-09T03:45:30.668Z,80781.91
2024-05-09T03:47:12.273Z,80779.22
2024-05-09T03:48:53.969Z,80781.47
2024-05-09T03:50:36.684Z,80778.06
2024-05-09T03:52:18.886Z,80774.41
2024-05-09T03:54:00.325Z,80775.38
2024-05-09T03:55:41.822Z,80769.94
2024-05-09T03:57:23.268Z,80778.34
2024-05-09T03:59:04.772Z,80775.03
2024-05-09T04:00:46.353Z,80773.53
2024-05-09T04:02:28.054Z,80770.97
2024-05-09T04:04:09.647Z,80770.63
2024-05-09T04:05:51.197Z,80769.56
2024-05-09T04:07:32.819Z,80769.75
2024-05-09T04:09:14.273Z,80776.66
2024-05-09T04:10:55.773Z,80776.31
2024-05-09T04:12:37.358Z,80780.22
2024-05-09T04:14:18.825Z,80781.72
2024-05-09T04:16:00.410Z,80782.22
2024-05-09T04:17:42.029Z,80789.72
2024-05-09T04:19:23.693Z,80791.47
2024-05-09T04:21:05.476Z,80789.22
2024-05-09T04:22:47.126Z,80793.19
2024-05-09T04:24:28.638Z,80793.53
2024-05-09T04:26:10.122Z,80787.72
2024-05-09T04:27:51.590Z,80793.47
2024-05-09T04:29:33.099Z,80799.13
2024-05-09T04:31:14.626Z,80805.22
2024-05-09T04:32:56.241Z,80806.69
2024-05-09T04:34:37.802Z,80810.88
2024-05-09T04:36:19.286Z,80810.97
2024-05-09T04:38:00.894Z,80816.81
2024-05-09T04:39:42.424Z,80820.47
2024-05-09T04:41:23.907Z,80814.44
2024-05-09T04:43:05.618Z,80811.19
2024-05-09T04:44:47.297Z,80812.25
2024-05-09T04:46:28.782Z,80810.25
2024-05-09T04:48:10.514Z,80813.41
2024-05-09T04:49:52.087Z,80815.28
2024-05-09T04:51:33.548Z,80808.44
2024-05-09T04:53:15.076Z,80813.38
2024-05-09T04:54:58.510Z,80808.38
2024-05-09T04:56:40.462Z,80803.34
2024-05-09T04:58:21.947Z,80808.13
2024-05-09T05:00:07.227Z,80801.94
2024-05-09T05:01:50.909Z,80807.72
2024-05-09T05:03:32.790Z,80808.22
2024-05-09T05:05:14.529Z,80804.22
2024-05-09T05:06:57.785Z,80806.41
2024-05-09T05:08:40.540Z,80811.63
2024-05-09T05:10:29.499Z,80811.22
2024-05-09T05:12:16.890Z,80809.22
2024-05-09T05:13:58.487Z,80817.00
2024-05-09T05:15:39.965Z,80809.47
2024-05-09T05:17:21.545Z,80825.94
2024-05-09T05:19:03.294Z,80827.13
2024-05-09T05:20:45.240Z,80826.25
2024-05-09T05:22:26.784Z,80824.25
2024-05-09T05:24:08.296Z,80819.34
2024-05-09T05:25:50.071Z,80819.69
2024-05-09T05:27:31.704Z,80819.59
2024-05-09T05:29:13.338Z,80821.38
2024-05-09T05:30:54.880Z,80822.34
2024-05-09T05:32:36.371Z,80826.34
2024-05-09T05:34:17.925Z,80825.56
2024-05-09T05:35:59.408Z,80830.97
2024-05-09T05:37:40.892Z,80825.56
2024-05-09T05:39:22.334Z,80831.19
2024-05-09T05:41:03.843Z,80838.50
2024-05-09T05:42:45.353Z,80834.38
2024-05-09T05:44:26.920Z,80830.75
2024-05-09T05:46:08.478Z,80829.44
2024-05-09T05:47:50.079Z,80841.28
2024-05-09T05:49:31.874Z,80837.97
2024-05-09T05:51:13.665Z,80837.56
2024-05-09T05:52:55.330Z,80845.31
2024-05-09T05:54:36.841Z,80837.13
2024-05-09T05:56:18.338Z,80845.09
2024-05-09T05:57:59.818Z,80842.34
2024-05-09T05:59:41.339Z,80842.28
2024-05-09T06:01:22.909Z,80839.22
2024-05-09T06:03:04.653Z,80845.59
2024-05-09T06:04:46.454Z,80838.94
2024-05-09T06:06:27.954Z,80842.59
2024-05-09T06:08:09.599Z,80838.94
2024-05-09T06:09:51.169Z,80840.81
2024-05-09T06:11:32.772Z,80841.41
2024-05-09T06:13:14.607Z,80842.34
2024-05-09T06:14:56.159Z,80840.00
2024-05-09T06:16:37.719Z,80841.91
2024-05-09T06:18:19.665Z,80841.50
2024-05-09T06:20:01.373Z,80838.06
2024-05-09T06:21:42.901Z,80835.75
2024-05-09T06:23:24.457Z,80838.53
2024-05-09T06:25:05.990Z,80840.50
2024-05-09T06:26:47.520Z,80834.00
2024-05-09T06:28:29.012Z,80829.44
2024-05-09T06:30:21.091Z,80836.13
2024-05-09T06:32:07.660Z,80833.97
2024-05-09T06:33:49.217Z,80834.69
2024-05-09T06:35:31.119Z,80833.75
2024-05-09T06:37:12.722Z,80834.84
2024-05-09T06:38:54.164Z,80838.19
2024-05-09T06:40:38.392Z,80841.41
2024-05-09T06:42:21.545Z,80839.84
2024-05-09T06:44:03.044Z,80837.22
2024-05-09T06:45:44.612Z,80843.91
2024-05-09T06:47:26.212Z,80839.59
2024-05-09T06:49:07.957Z,80840.44
2024-05-09T06:50:49.659Z,80837.03
2024-05-09T06:52:31.364Z,80844.69
2024-05-09T06:54:12.819Z,80841.88
2024-05-09T06:55:54.349Z,80841.56
2024-05-09T06:57:36.703Z,80835.91
2024-05-09T06:59:19.271Z,80835.06
2024-05-09T07:01:00.858Z,80843.44
2024-05-09T07:02:42.581Z,80840.94
2024-05-09T07:04:24.304Z,80851.28
2024-05-09T07:06:06.000Z,80847.38
2024-05-09T07:07:47.589Z,80847.47
2024-05-09T07:09:29.086Z,80844.41
2024-05-09T07:11:10.692Z,80837.81
2024-05-09T07:12:52.190Z,80847.78
2024-05-09T07:14:36.037Z,80835.72
2024-05-09T07:16:18.327Z,80837.50
2024-05-09T07:17:59.874Z,80837.75
2024-05-09T07:19:41.515Z,80841.09
2024-05-09T07:21:23.051Z,80846.41
2024-05-09T07:23:04.666Z,80845.88
2024-05-09T07:24:46.231Z,80844.25
2024-05-09T07:26:27.839Z,80830.91
2024-05-09T07:28:09.348Z,80831.50
2024-05-09T07:29:50.816Z,80833.75
2024-05-09T07:31:32.270Z,80840.97
2024-05-09T07:33:13.880Z,80833.50
2024-05-09T07:34:55.442Z,80832.84
2024-05-09T07:36:36.944Z,80836.53
2024-05-09T07:38:18.514Z,80833.31
2024-05-09T07:40:00.244Z,80833.66
2024-05-09T07:41:41.742Z,80826.75
2024-05-09T07:43:23.203Z,80825.69
2024-05-09T07:45:21.453Z,80822.13
2024-05-09T07:48:14.434Z,80829.16
2024-05-09T07:53:33.468Z,80828.44
2024-05-09T07:54:37.846Z,80818.03
2024-05-09T07:56:21.849Z,80825.56
2024-05-09T07:58:04.885Z,80824.97
2024-05-09T07:59:46.396Z,80828.06
2024-05-09T08:01:28.023Z,80827.25
2024-05-09T08:03:09.732Z,80825.06
2024-05-09T08:04:51.289Z,80823.31
2024-05-09T08:06:32.791Z,80832.41
2024-05-09T08:08:14.286Z,80834.78
2024-05-09T08:09:55.773Z,80830.38
2024-05-09T08:11:37.264Z,80840.91
2024-05-09T08:13:18.976Z,80837.75
2024-05-09T08:15:00.508Z,80846.00
2024-05-09T08:16:41.950Z,80842.75
2024-05-09T08:18:23.551Z,80847.97
2024-05-09T08:20:05.724Z,80833.88
2024-05-09T08:21:47.340Z,80838.00
2024-05-09T08:23:28.941Z,80836.09
2024-05-09T08:25:13.551Z,80832.09
2024-05-09T08:26:55.476Z,80822.78
2024-05-09T08:28:36.926Z,80824.25
2024-05-09T08:30:24.881Z,80817.00
2024-05-09T08:32:11.357Z,80819.41
2024-05-09T08:33:53.104Z,80808.84
2024-05-09T08:35:34.970Z,80807.44
2024-05-09T08:37:22.343Z,80801.25
2024-05-09T08:39:06.153Z,80806.47
2024-05-09T08:40:47.657Z,80807.41
2024-05-09T08:42:29.526Z,80807.19
2024-05-09T08:44:10.987Z,80799.09
2024-05-09T08:45:52.501Z,80802.53
2024-05-09T08:47:34.149Z,80802.78
2024-05-09T08:49:15.911Z,80795.66
2024-05-09T08:50:57.451Z,80799.34
2024-05-09T08:52:38.902Z,80809.59
2024-05-09T08:54:20.362Z,80808.56
2024-05-09T08:56:01.888Z,80809.16
2024-05-09T08:57:43.373Z,80809.34
2024-05-09T08:59:24.851Z,80803.28
2024-05-09T09:01:06.393Z,80797.88
2024-05-09T09:02:47.954Z,80802.25
2024-05-09T09:04:29.500Z,80803.84
2024-05-09T09:06:11.057Z,80799.59
2024-05-09T09:07:52.578Z,80822.59
2024-05-09T09:09:34.082Z,80826.44
2024-05-09T09:11:15.615Z,80812.03
2024-05-09T09:12:57.142Z,80818.47
2024-05-09T09:14:38.623Z,80819.47
2024-05-09T09:16:20.244Z,80811.91
2024-05-09T09:18:01.961Z,80817.59
2024-05-09T09:19:43.649Z,80811.25
2024-05-09T09:21:25.152Z,80811.34
2024-05-09T09:23:06.609Z,80814.28
2024-05-09T09:24:48.154Z,80817.78
2024-05-09T09:26:29.631Z,80808.94
2024-05-09T09:28:11.258Z,80821.19
2024-05-09T09:29:52.803Z,80809.28
2024-05-09T09:31:34.456Z,80815.19
2024-05-09T09:33:16.050Z,80812.28
2024-05-09T09:34:57.607Z,80821.88
2024-05-09T09:36:39.189Z,80821.09
2024-05-09T09:38:20.695Z,80812.88
2024-05-09T09:40:02.223Z,80819.94
2024-05-09T09:41:43.729Z,80816.63
2024-05-09T09:43:25.254Z,80813.59
2024-05-09T09:45:06.732Z,80819.72
2024-05-09T09:46:48.278Z,80817.22
2024-05-09T09:48:29.947Z,80806.22
2024-05-09T09:50:14.567Z,80806.75
2024-05-09T09:51:58.574Z,80807.38
2024-05-09T09:53:40.136Z,80810.50
2024-05-09T09:55:21.676Z,80805.19
2024-05-09T09:57:03.241Z,80803.31
2024-05-09T09:58:44.699Z,80798.31
2024-05-09T10:00:30.604Z,80800.88
2024-05-09T10:02:14.794Z,80795.72
2024-05-09T10:03:56.390Z,80799.84
2024-05-09T10:05:39.331Z,80800.16
2024-05-09T10:07:21.980Z,80797.97
2024-05-09T10:09:03.487Z,80797.25
2024-05-09T10:10:45.042Z,80798.97
2024-05-09T10:12:26.606Z,80798.97
2024-05-09T10:14:08.106Z,80792.63
2024-05-09T10:15:49.611Z,80799.25
2024-05-09T10:17:31.170Z,80796.56
2024-05-09T10:19:12.718Z,80796.88
2024-05-09T10:20:54.223Z,80802.66
2024-05-09T10:22:35.697Z,80794.31
2024-05-09T10:24:17.171Z,80799.25
2024-05-09T10:25:58.632Z,80805.91
2024-05-09T10:27:40.142Z,80800.53
2024-05-09T10:29:21.666Z,80805.16
2024-05-09T10:31:03.180Z,80802.66
2024-05-09T10:32:44.862Z,80802.56
2024-05-09T10:34:26.699Z,80798.94
2024-05-09T10:36:08.331Z,80795.03
2024-05-09T10:37:49.785Z,80794.28
2024-05-09T10:39:31.299Z,80793.66
2024-05-09T10:41:12.818Z,80794.53
2024-05-09T10:42:54.366Z,80783.22
2024-05-09T10:44:35.878Z,80787.81
2024-05-09T10:46:17.411Z,80791.50
2024-05-09T10:47:59.008Z,80792.41
2024-05-09T10:49:40.643Z,80799.56
2024-05-09T10:51:22.136Z,80786.56
2024-05-09T10:53:03.612Z,80789.34
2024-05-09T10:54:45.096Z,80792.56
2024-05-09T10:56:26.566Z,80795.97
2024-05-09T10:58:08.015Z,80790.06
2024-05-09T10:59:49.475Z,80797.00
2024-05-09T11:01:31.022Z,80801.78
2024-05-09T11:03:12.556Z,80790.69
2024-05-09T11:04:54.222Z,80782.69
2024-05-09T11:06:35.832Z,80786.06
2024-05-09T11:08:17.286Z,80779.50
2024-05-09T11:09:58.975Z,80789.94
2024-05-09T11:11:40.504Z,80784.13
2024-05-09T11:13:22.074Z,80780.88
2024-05-09T11:15:03.546Z,80784.19
2024-05-09T11:16:45.002Z,80789.47
2024-05-09T11:18:28.115Z,80782.88
2024-05-09T11:20:17.067Z,80783.56
2024-05-09T11:22:04.621Z,80789.44
2024-05-09T11:23:46.122Z,80780.25
2024-05-09T11:25:27.594Z,80782.88
2024-05-09T11:27:09.074Z,80785.53
2024-05-09T11:28:51.035Z,80790.13
2024-05-09T11:30:32.805Z,80785.50
2024-05-09T11:32:14.386Z,80788.81
2024-05-09T11:33:55.980Z,80790.13
2024-05-09T11:35:37.477Z,80782.25
2024-05-09T11:37:19.183Z,80792.09
2024-05-09T11:39:00.767Z,80790.59
2024-05-09T11:40:42.421Z,80794.56
2024-05-09T11:42:24.040Z,80797.97
2024-05-09T11:44:05.490Z,80785.44
2024-05-09T11:45:46.985Z,80786.59
2024-05-09T11:47:28.632Z,80786.66
2024-05-09T11:49:10.326Z,80797.91
2024-05-09T11:50:51.857Z,80791.22
2024-05-09T11:52:33.313Z,80793.72
2024-05-09T11:54:14.791Z,80789.41
2024-05-09T11:55:56.251Z,80791.88
2024-05-09T11:57:37.757Z,80794.44
2024-05-09T11:59:19.241Z,80794.91
2024-05-09T12:01:00.795Z,80795.56
2024-05-09T12:02:42.311Z,80787.28
2024-05-09T12:04:24.090Z,80788.63
2024-05-09T12:06:05.834Z,80791.25
2024-05-09T12:07:47.473Z,80772.25
2024-05-09T12:09:29.022Z,80784.69
2024-05-09T12:11:10.614Z,80781.16
2024-05-09T12:12:52.241Z,80783.97
2024-05-09T12:14:33.748Z,80779.53
2024-05-09T12:16:15.284Z,80775.63
2024-05-09T12:17:58.997Z,80774.31
2024-05-09T12:19:42.773Z,80775.63
2024-05-09T12:21:24.276Z,80776.94
2024-05-09T12:23:05.785Z,80776.28
2024-05-09T12:24:47.284Z,80776.94
2024-05-09T12:26:28.930Z,80774.94
2024-05-09T12:28:10.644Z,80772.31
2024-05-09T12:29:52.159Z,80781.50
2024-05-09T12:31:33.638Z,80785.94
2024-05-09T12:33:15.214Z,80784.63
2024-05-09T12:34:56.746Z,80778.75
2024-05-09T12:36:38.269Z,80791.88
2024-05-09T12:38:19.747Z,80782.63
2024-05-09T12:40:01.230Z,80775.88
2024-05-09T12:41:42.740Z,80785.69
2024-05-09T12:43:24.233Z,80778.44
2024-05-09T12:45:05.812Z,80782.13
2024-05-09T12:46:47.299Z,80789.50
2024-05-09T12:48:28.937Z,80783.81
2024-05-09T12:50:21.762Z,80777.88
2024-05-09T12:52:06.790Z,80786.59
2024-05-09T12:53:48.293Z,80782.91
2024-05-09T12:55:34.008Z,80781.84
2024-05-09T12:57:22.190Z,80790.38
2024-05-09T12:59:03.671Z,80790.63
2024-05-09T13:00:45.496Z,80805.50
2024-05-09T13:02:27.493Z,80796.97
2024-05-09T13:04:09.305Z,80802.53
2024-05-09T13:05:51.023Z,80802.41
2024-05-09T13:07:32.526Z,80801.72
2024-05-09T13:09:14.430Z,80795.66
2024-05-09T13:10:56.256Z,80793.91
2024-05-09T13:12:37.755Z,80788.13
2024-05-09T13:14:19.279Z,80787.59
2024-05-09T13:16:00.835Z,80791.59
2024-05-09T13:17:42.440Z,80783.59
2024-05-09T13:19:24.122Z,80792.06
2024-05-09T13:21:05.645Z,80786.88
2024-05-09T13:22:47.124Z,80782.56
2024-05-09T13:24:28.629Z,80783.38
2024-05-09T13:26:10.127Z,80785.81
2024-05-09T13:27:51.663Z,80784.16
2024-05-09T13:29:33.173Z,80781.94
2024-05-09T13:31:14.740Z,80782.44
2024-05-09T13:32:56.329Z,80772.38
2024-05-09T13:34:38.003Z,80773.63
2024-05-09T13:36:19.503Z,80772.16
2024-05-09T13:38:01.012Z,80766.34
2024-05-09T13:39:42.467Z,80771.06
2024-05-09T13:41:23.941Z,80769.16
2024-05-09T13:43:05.606Z,80770.06
2024-05-09T13:44:47.232Z,80762.22
2024-05-09T13:46:28.792Z,80764.91
2024-05-09T13:48:10.638Z,80774.25
2024-05-09T13:49:52.318Z,80772.91
2024-05-09T13:51:34.021Z,80769.06
2024-05-09T13:53:15.543Z,80764.38
2024-05-09T13:54:57.153Z,80776.78
2024-05-09T13:56:38.849Z,80772.88
2024-05-09T13:58:20.659Z,80769.13
2024-05-09T14:00:03.632Z,80771.84
2024-05-09T14:01:45.361Z,80771.56
2024-05-09T14:03:27.161Z,80767.75
2024-05-09T14:05:08.863Z,80767.97
2024-05-09T14:06:50.508Z,80763.78
2024-05-09T14:08:31.994Z,80765.56
2024-05-09T14:10:22.622Z,80769.47
2024-05-09T14:12:09.725Z,80763.75
2024-05-09T14:13:52.847Z,80768.84
2024-05-09T14:15:34.382Z,80765.00
2024-05-09T14:17:16.059Z,80762.50
2024-05-09T14:18:57.643Z,80768.03
2024-05-09T14:20:39.193Z,80760.50
2024-05-09T14:22:21.875Z,80765.44
2024-05-09T14:24:03.474Z,80756.38
2024-05-09T14:25:46.579Z,80757.75
2024-05-09T14:27:29.773Z,80764.25
2024-05-09T14:29:11.376Z,80762.91
2024-05-09T14:30:52.944Z,80760.13
2024-05-09T14:32:34.565Z,80758.84
2024-05-09T14:34:16.295Z,80758.94
2024-05-09T14:35:57.990Z,80753.13
2024-05-09T14:37:39.880Z,80750.38
2024-05-09T14:39:21.388Z,80750.50
2024-05-09T14:41:02.894Z,80752.50
2024-05-09T14:42:44.406Z,80756.44
2024-05-09T14:44:25.895Z,80747.91
2024-05-09T14:46:07.525Z,80747.91
2024-05-09T14:47:49.189Z,80749.84
2024-05-09T14:49:30.987Z,80737.41
2024-05-09T14:51:12.844Z,80745.94
2024-05-09T14:52:54.468Z,80740.66
2024-05-09T14:54:36.114Z,80745.97
2024-05-09T14:56:17.635Z,80742.03
2024-05-09T14:57:59.161Z,80741.34
2024-05-09T14:59:40.784Z,80738.03
2024-05-09T15:01:22.376Z,80744.66
2024-05-09T15:03:04.012Z,80744.63
2024-05-09T15:04:45.748Z,80742.00
2024-05-09T15:06:27.326Z,80735.41
2024-05-09T15:08:08.855Z,80734.13
2024-05-09T15:09:50.407Z,80744.66
2024-05-09T15:11:31.995Z,80740.03
2024-05-09T15:13:16.250Z,80745.84
2024-05-09T15:14:58.421Z,80739.38
2024-05-09T15:16:39.944Z,80737.41
2024-05-09T15:18:21.619Z,80742.00
2024-05-09T15:20:05.912Z,80743.28
2024-05-09T15:21:50.593Z,80739.38
2024-05-09T15:23:32.152Z,80737.38
2024-05-09T15:25:13.816Z,80740.03
2024-05-09T15:26:55.435Z,80738.72
2024-05-09T15:28:36.906Z,80743.97
2024-05-09T15:30:24.013Z,80740.00
2024-05-09T15:32:09.828Z,80740.66
2024-05-09T15:33:51.516Z,80743.28
2024-05-09T15:35:33.124Z,80737.34
2024-05-09T15:37:14.733Z,80742.59
2024-05-09T15:38:56.275Z,80746.59
2024-05-09T15:40:40.346Z,80746.47
2024-05-09T15:42:22.619Z,80744.50
2024-05-09T15:44:04.106Z,80736.63
2024-05-09T15:45:45.652Z,80740.63
2024-05-09T15:47:27.189Z,80738.03
2024-05-09T15:49:09.052Z,80731.34
2024-05-09T15:50:50.721Z,80744.41
2024-05-09T15:52:32.344Z,80750.66
2024-05-09T15:54:13.865Z,80745.88
2024-05-09T15:55:55.411Z,80750.69
2024-05-09T15:57:36.908Z,80743.00
2024-05-09T15:59:18.383Z,80754.38
2024-05-09T16:00:59.927Z,80752.34
2024-05-09T16:02:41.551Z,80755.59
2024-05-09T16:04:23.286Z,80752.81
2024-05-09T16:06:04.944Z,80756.19
2024-05-09T16:07:46.492Z,80750.53
2024-05-09T16:09:27.962Z,80752.41
2024-05-09T16:11:09.545Z,80747.38
2024-05-09T16:12:51.130Z,80751.97
2024-05-09T16:14:32.610Z,80752.22
2024-05-09T16:16:14.092Z,80749.13
2024-05-09T16:17:56.095Z,80745.75
2024-05-09T16:19:37.671Z,80746.34
2024-05-09T16:21:19.154Z,80745.31
2024-05-09T16:23:00.598Z,80743.78
2024-05-09T16:24:42.128Z,80745.22
2024-05-09T16:26:23.626Z,80745.25
2024-05-09T16:28:08.659Z,80749.47
2024-05-09T16:29:52.065Z,80744.47
2024-05-09T16:31:33.625Z,80751.25
2024-05-09T16:33:15.259Z,80743.56
2024-05-09T16:34:56.835Z,80752.72
2024-05-09T16:36:38.357Z,80745.38
2024-05-09T16:38:19.853Z,80752.56
2024-05-09T16:40:01.377Z,80748.03
2024-05-09T16:41:42.870Z,80744.75
2024-05-09T16:43:24.492Z,80747.63
2024-05-09T16:45:06.641Z,80747.00
2024-05-09T16:46:48.443Z,80744.47
2024-05-09T16:48:30.239Z,80751.69
2024-05-09T16:50:15.793Z,80755.69
2024-05-09T16:52:00.622Z,80751.69
2024-05-09T16:53:42.194Z,80749.06
2024-05-09T16:55:23.941Z,80751.59
2024-05-09T16:57:05.529Z,80755.50
2024-05-09T16:58:46.982Z,80751.50
2024-05-09T17:00:38.281Z,80754.84
2024-05-09T17:02:23.881Z,80753.63
2024-05-09T17:04:05.675Z,80760.16
2024-05-09T17:05:47.949Z,80756.19
2024-05-09T17:07:29.710Z,80750.94
2024-05-09T17:09:12.075Z,80750.31
2024-05-09T17:10:57.215Z,80746.44
2024-05-09T17:12:38.806Z,80754.03
2024-05-09T17:14:20.289Z,80751.34
2024-05-09T17:16:01.860Z,80755.59
2024-05-09T17:17:43.455Z,80753.84
2024-05-09T17:19:24.990Z,80749.31
2024-05-09T17:21:06.513Z,80755.41
2024-05-09T17:22:47.989Z,80750.97
2024-05-09T17:24:29.500Z,80754.25
2024-05-09T17:26:10.985Z,80757.03
2024-05-09T17:27:52.568Z,80761.09
2024-05-09T17:29:34.052Z,80760.75
2024-05-09T17:31:15.552Z,80767.44
2024-05-09T17:32:57.135Z,80768.66
2024-05-09T17:34:38.858Z,80774.44
2024-05-09T17:36:20.371Z,80777.06
2024-05-09T17:38:01.947Z,80776.78
2024-05-09T17:39:43.575Z,80777.13
2024-05-09T17:41:25.073Z,80780.44
2024-05-09T17:43:08.351Z,80780.91
2024-05-09T17:44:51.398Z,80778.56
2024-05-09T17:46:32.971Z,80770.63
2024-05-09T17:48:14.713Z,80778.78
2024-05-09T17:49:56.422Z,80781.31
2024-05-09T17:51:38.059Z,80778.34
2024-05-09T17:53:19.558Z,80782.69
2024-05-09T17:55:01.184Z,80779.97
2024-05-09T17:56:42.769Z,80781.47
2024-05-09T17:58:24.509Z,80777.41
2024-05-09T18:00:11.137Z,80775.56
2024-05-09T18:01:53.254Z,80774.88
2024-05-09T18:03:34.944Z,80779.63
2024-05-09T18:05:16.612Z,80784.34
2024-05-09T18:06:58.231Z,80780.97
2024-05-09T18:08:39.718Z,80784.75
2024-05-09T18:10:26.057Z,80784.81
2024-05-09T18:12:14.412Z,80791.28
2024-05-09T18:13:55.864Z,80793.47
2024-05-09T18:15:37.746Z,80786.91
2024-05-09T18:17:20.611Z,80789.25
2024-05-09T18:19:03.447Z,80790.00
2024-05-09T18:20:46.225Z,80790.53
2024-05-09T18:22:28.257Z,80806.22
2024-05-09T18:24:09.740Z,80804.16
2024-05-09T18:25:51.204Z,80799.56
2024-05-09T18:27:32.719Z,80796.03
2024-05-09T18:29:14.184Z,80798.06
2024-05-09T18:30:55.762Z,80801.91
2024-05-09T18:32:37.382Z,80801.81
2024-05-09T18:34:19.090Z,80804.91
2024-05-09T18:36:00.705Z,80802.56
2024-05-09T18:37:42.160Z,80799.75
2024-05-09T18:39:23.627Z,80806.75
2024-05-09T18:41:05.206Z,80804.84
2024-05-09T18:42:46.742Z,80803.94
2024-05-09T18:44:28.221Z,80809.88
2024-05-09T18:46:09.785Z,80805.97
2024-05-09T18:47:51.341Z,80811.03
2024-05-09T18:49:32.938Z,80816.25
2024-05-09T18:51:14.463Z,80814.63
2024-05-09T18:52:55.897Z,80818.75
2024-05-09T18:54:37.370Z,80822.75
2024-05-09T18:56:18.863Z,80816.13
2024-05-09T18:58:00.576Z,80813.78
2024-05-09T18:59:42.129Z,80817.16
2024-05-09T19:01:23.630Z,80816.09
2024-05-09T19:03:06.109Z,80826.91
2024-05-09T19:04:48.237Z,80821.72
2024-05-09T19:06:30.910Z,80828.69
2024-05-09T19:08:12.487Z,80828.84
2024-05-09T19:09:54.006Z,80828.94
2024-05-09T19:11:35.656Z,80835.47
2024-05-09T19:13:17.196Z,80835.41
2024-05-09T19:14:58.687Z,80840.09
2024-05-09T19:16:40.177Z,80837.81
2024-05-09T19:18:21.754Z,80845.59
2024-05-09T19:20:04.542Z,80842.44
2024-05-09T19:21:47.140Z,80842.38
2024-05-09T19:23:28.972Z,80847.09
2024-05-09T19:25:10.788Z,80845.13
2024-05-09T19:26:52.334Z,80848.06
2024-05-09T19:28:33.891Z,80850.53
2024-05-09T19:30:25.071Z,80851.91
2024-05-09T19:32:15.367Z,80855.09
2024-05-09T19:33:56.898Z,80854.44
2024-05-09T19:35:38.426Z,80857.84
2024-05-09T19:37:20.050Z,80854.75
2024-05-09T19:39:01.515Z,80863.44
2024-05-09T19:40:43.136Z,80857.84
2024-05-09T19:42:24.710Z,80863.25
2024-05-09T19:44:06.231Z,80859.88
2024-05-09T19:45:47.778Z,80862.69
2024-05-09T19:47:29.440Z,80861.88
2024-05-09T19:49:11.250Z,80856.53
2024-05-09T19:50:53.344Z,80869.94
2024-05-09T19:52:35.104Z,80870.38
2024-05-09T19:54:16.681Z,80871.16
2024-05-09T19:55:58.160Z,80862.63
2024-05-09T19:57:39.815Z,80869.91
2024-05-09T19:59:21.311Z,80874.06
2024-05-09T20:01:02.852Z,80870.44
2024-05-09T20:02:44.559Z,80870.88